PWSweather.com
Personal Weather Stations
Station Observations
1A3COP
Copperhill Airport Community, Copperhill, TN 37317

Copperhill Airport CommunityCopperhill, TN 37317

Lat: 35.015465, Lon: -84.340598

Elevation: 1830

Station Type: Acurite Pro 5 in 1

Latest ConditionsUpdated 2:02:01 AM EST Wednesday, Jan 16, 2019
Currently Today's Max Today's Min Today's Average
Temperature 26.4°F-3.1°C 26.4°F-3.1°C 23.9°F-4.5°C 25.2°F-3.8°C
Dew Point 26.2°F-3.2°C 26.2°F-3.2°C 23.7°F-4.6°C 24.9°F-3.9°C
Winds Calm Calm Calm -Calm - - Calm Calm
Wind Gusts -- -- - -
Humidity 99% 99% 99% 99%
Pressure 30.30 in1026.1 mb 30.30 in1026.1 mb 30.29 in1025.7 mb -
Hour Temp Dew Point Humidity Winds Wind Gusts Pressure Precip Precip Rate Daily Precip Total
02:02 AM 26.4°F-3.1°C 26.2°F-3.2°C 99% Calm Calm -- 30.30 in1026.1 mb - 0.00 in0.0 mm 0.00 in0.0 mm
02:01 AM 26.4°F-3.1°C 26.2°F-3.2°C 99% Calm Calm -- 30.29 in1025.7 mb - 0.00 in0.0 mm 0.00 in0.0 mm
02:00 AM 26.4°F-3.1°C 26.2°F-3.2°C 99% Calm Calm -- 30.29 in1025.7 mb - 0.00 in0.0 mm 0.00 in0.0 mm
01:59 AM 26.4°F-3.1°C 26.2°F-3.2°C 99% Calm Calm -- 30.29 in1025.7 mb - 0.00 in0.0 mm 0.00 in0.0 mm
01:58 AM 26.4°F-3.1°C 26.2°F-3.2°C 99% Calm Calm -- 30.29 in1025.7 mb - 0.00 in0.0 mm 0.00 in0.0 mm
01:57 AM 26.4°F-3.1°C 26.2°F-3.2°C 99% Calm Calm -- 30.29 in1025.7 mb - 0.00 in0.0 mm 0.00 in0.0 mm
01:56 AM 26.4°F-3.1°C 26.2°F-3.2°C 99% Calm Calm -- 30.29 in1025.7 mb - 0.00 in0.0 mm 0.00 in0.0 mm
01:55 AM 26.4°F-3.1°C 26.2°F-3.2°C 99% Calm Calm -- 30.29 in1025.7 mb - 0.00 in0.0 mm 0.00 in0.0 mm
01:54 AM 26.4°F-3.1°C 26.2°F-3.2°C 99% Calm Calm -- 30.29 in1025.7 mb - 0.00 in0.0 mm 0.00 in0.0 mm
01:53 AM 26.4°F-3.1°C 26.2°F-3.2°C 99% Calm Calm -- 30.29 in1025.7 mb - 0.00 in0.0 mm 0.00 in0.0 mm
01:52 AM 26.4°F-3.1°C 26.2°F-3.2°C 99% Calm Calm -- 30.29 in1025.7 mb - 0.00 in0.0 mm 0.00 in0.0 mm
01:51 AM 26.2°F-3.2°C 26.0°F-3.3°C 99% Calm Calm -- 30.29 in1025.7 mb - 0.00 in0.0 mm 0.00 in0.0 mm
01:50 AM 26.2°F-3.2°C 26.0°F-3.3°C 99% Calm Calm -- 30.29 in1025.7 mb - 0.00 in0.0 mm 0.00 in0.0 mm
01:49 AM 26.2°F-3.2°C 26.0°F-3.3°C 99% Calm Calm -- 30.29 in1025.7 mb - 0.00 in0.0 mm 0.00 in0.0 mm
01:48 AM 26.2°F-3.2°C 26.0°F-3.3°C 99% Calm Calm -- 30.29 in1025.7 mb - 0.00 in0.0 mm 0.00 in0.0 mm
01:47 AM 26.2°F-3.2°C 26.0°F-3.3°C 99% Calm Calm -- 30.29 in1025.7 mb - 0.00 in0.0 mm 0.00 in0.0 mm
01:46 AM 26.1°F-3.3°C 25.9°F-3.4°C 99% Calm Calm -- 30.29 in1025.7 mb - 0.00 in0.0 mm 0.00 in0.0 mm
01:45 AM 26.0°F-3.3°C 25.7°F-3.5°C 99% Calm Calm -- 30.29 in1025.7 mb - 0.00 in0.0 mm 0.00 in0.0 mm
01:44 AM 25.9°F-3.4°C 25.7°F-3.5°C 99% Calm Calm -- 30.29 in1025.7 mb - 0.00 in0.0 mm 0.00 in0.0 mm
01:43 AM 25.9°F-3.4°C 25.7°F-3.5°C 99% Calm Calm -- 30.29 in1025.7 mb - 0.00 in0.0 mm 0.00 in0.0 mm
01:42 AM 25.9°F-3.4°C 25.7°F-3.5°C 99% Calm Calm -- 30.29 in1025.7 mb - 0.00 in0.0 mm 0.00 in0.0 mm
01:41 AM 25.9°F-3.4°C 25.7°F-3.5°C 99% Calm Calm -- 30.29 in1025.7 mb - 0.00 in0.0 mm 0.00 in0.0 mm
01:40 AM 25.9°F-3.4°C 25.7°F-3.5°C 99% Calm Calm -- 30.29 in1025.7 mb - 0.00 in0.0 mm 0.00 in0.0 mm
01:39 AM 25.7°F-3.5°C 25.5°F-3.6°C 99% Calm Calm -- 30.29 in1025.7 mb - 0.00 in0.0 mm 0.00 in0.0 mm
01:38 AM 25.7°F-3.5°C 25.4°F-3.7°C 99% Calm Calm -- 30.29 in1025.7 mb - 0.00 in0.0 mm 0.00 in0.0 mm
01:37 AM 25.5°F-3.6°C 25.3°F-3.7°C 99% Calm Calm -- 30.29 in1025.7 mb - 0.00 in0.0 mm 0.00 in0.0 mm
01:36 AM 25.5°F-3.6°C 25.3°F-3.7°C 99% Calm Calm -- 30.29 in1025.7 mb - 0.00 in0.0 mm 0.00 in0.0 mm
01:35 AM 25.3°F-3.7°C 25.1°F-3.8°C 99% Calm Calm -- 30.29 in1025.7 mb - 0.00 in0.0 mm 0.00 in0.0 mm
01:34 AM 25.3°F-3.7°C 25.1°F-3.8°C 99% Calm Calm -- 30.29 in1025.7 mb - 0.00 in0.0 mm 0.00 in0.0 mm
01:33 AM 25.3°F-3.7°C 25.1°F-3.8°C 99% Calm Calm -- 30.29 in1025.7 mb - 0.00 in0.0 mm 0.00 in0.0 mm
01:32 AM 25.2°F-3.8°C 25.0°F-3.9°C 99% Calm Calm -- 30.29 in1025.7 mb - 0.00 in0.0 mm 0.00 in0.0 mm
01:31 AM 25.2°F-3.8°C 25.0°F-3.9°C 99% Calm Calm -- 30.29 in1025.7 mb - 0.00 in0.0 mm 0.00 in0.0 mm
01:30 AM 25.2°F-3.8°C 25.0°F-3.9°C 99% Calm Calm -- 30.29 in1025.7 mb - 0.00 in0.0 mm 0.00 in0.0 mm
01:29 AM 25.1°F-3.8°C 24.8°F-4.0°C 99% Calm Calm -- 30.29 in1025.7 mb - 0.00 in0.0 mm 0.00 in0.0 mm
01:28 AM 25.0°F-3.9°C 24.8°F-4.0°C 99% Calm Calm -- 30.29 in1025.7 mb - 0.00 in0.0 mm 0.00 in0.0 mm
01:27 AM 25.2°F-3.8°C 24.9°F-3.9°C 99% Calm Calm -- 30.29 in1025.7 mb - 0.00 in0.0 mm 0.00 in0.0 mm
01:26 AM 25.2°F-3.8°C 25.0°F-3.9°C 99% Calm Calm -- 30.29 in1025.7 mb - 0.00 in0.0 mm 0.00 in0.0 mm
01:25 AM 25.1°F-3.8°C 24.8°F-4.0°C 99% Calm Calm -- 30.29 in1025.7 mb - 0.00 in0.0 mm 0.00 in0.0 mm
01:24 AM 25.0°F-3.9°C 24.8°F-4.0°C 99% Calm Calm -- 30.29 in1025.7 mb - 0.00 in0.0 mm 0.00 in0.0 mm
01:23 AM 25.0°F-3.9°C 24.8°F-4.0°C 99% Calm Calm -- 30.29 in1025.7 mb - 0.00 in0.0 mm 0.00 in0.0 mm
01:22 AM 25.0°F-3.9°C 24.8°F-4.0°C 99% Calm Calm -- 30.29 in1025.7 mb - 0.00 in0.0 mm 0.00 in0.0 mm
01:21 AM 24.9°F-3.9°C 24.7°F-4.1°C 99% Calm Calm -- 30.29 in1025.7 mb - 0.00 in0.0 mm 0.00 in0.0 mm
01:20 AM 24.7°F-4.1°C 24.5°F-4.2°C 99% Calm Calm -- 30.29 in1025.7 mb - 0.00 in0.0 mm 0.00 in0.0 mm
01:19 AM 24.6°F-4.1°C 24.4°F-4.2°C 99% Calm Calm -- 30.29 in1025.7 mb - 0.00 in0.0 mm 0.00 in0.0 mm
01:18 AM 24.6°F-4.1°C 24.4°F-4.2°C 99% Calm Calm -- 30.29 in1025.7 mb - 0.00 in0.0 mm 0.00 in0.0 mm
01:17 AM 24.6°F-4.1°C 24.4°F-4.2°C 99% Calm Calm -- 30.29 in1025.7 mb - 0.00 in0.0 mm 0.00 in0.0 mm
01:16 AM 24.5°F-4.2°C 24.2°F-4.3°C 99% Calm Calm -- 30.29 in1025.7 mb - 0.00 in0.0 mm 0.00 in0.0 mm
01:15 AM 24.3°F-4.3°C 24.1°F-4.4°C 99% Calm Calm -- 30.29 in1025.7 mb - 0.00 in0.0 mm 0.00 in0.0 mm
01:14 AM 24.1°F-4.4°C 23.9°F-4.5°C 99% Calm Calm -- 30.29 in1025.7 mb - 0.00 in0.0 mm 0.00 in0.0 mm
01:13 AM 24.1°F-4.4°C 23.9°F-4.5°C 99% Calm Calm -- 30.29 in1025.7 mb - 0.00 in0.0 mm 0.00 in0.0 mm
01:12 AM 24.1°F-4.4°C 23.9°F-4.5°C 99% Calm Calm -- 30.29 in1025.7 mb - 0.00 in0.0 mm 0.00 in0.0 mm
01:11 AM 24.1°F-4.4°C 23.9°F-4.5°C 99% Calm Calm -- 30.29 in1025.7 mb - 0.00 in0.0 mm 0.00 in0.0 mm
01:10 AM 24.1°F-4.4°C 23.9°F-4.5°C 99% Calm Calm -- 30.29 in1025.7 mb - 0.00 in0.0 mm 0.00 in0.0 mm
01:09 AM 24.1°F-4.4°C 23.9°F-4.5°C 99% Calm Calm -- 30.29 in1025.7 mb - 0.00 in0.0 mm 0.00 in0.0 mm
01:08 AM 24.2°F-4.3°C 24.0°F-4.4°C 99% Calm Calm -- 30.29 in1025.7 mb - 0.00 in0.0 mm 0.00 in0.0 mm
01:07 AM 24.3°F-4.3°C 24.1°F-4.4°C 99% Calm Calm -- 30.29 in1025.7 mb - 0.00 in0.0 mm 0.00 in0.0 mm
01:06 AM 24.3°F-4.3°C 24.1°F-4.4°C 99% Calm Calm -- 30.29 in1025.7 mb - 0.00 in0.0 mm 0.00 in0.0 mm
01:05 AM 24.4°F-4.2°C 24.1°F-4.4°C 99% Calm Calm -- 30.29 in1025.7 mb - 0.00 in0.0 mm 0.00 in0.0 mm
01:04 AM 24.4°F-4.2°C 24.2°F-4.3°C 99% Calm Calm -- 30.29 in1025.7 mb - 0.00 in0.0 mm 0.00 in0.0 mm
01:03 AM 24.4°F-4.2°C 24.2°F-4.3°C 99% Calm Calm -- 30.29 in1025.7 mb - 0.00 in0.0 mm 0.00 in0.0 mm
01:02 AM 24.4°F-4.2°C 24.2°F-4.3°C 99% Calm Calm -- 30.29 in1025.7 mb - 0.00 in0.0 mm 0.00 in0.0 mm
01:01 AM 24.4°F-4.2°C 24.2°F-4.3°C 99% Calm Calm -- 30.29 in1025.7 mb - 0.00 in0.0 mm 0.00 in0.0 mm
01:00 AM 24.4°F-4.2°C 24.2°F-4.3°C 99% Calm Calm -- 30.29 in1025.7 mb - 0.00 in0.0 mm 0.00 in0.0 mm
12:59 AM 24.3°F-4.3°C 24.1°F-4.4°C 99% Calm Calm -- 30.29 in1025.7 mb - 0.00 in0.0 mm 0.00 in0.0 mm
12:58 AM 24.3°F-4.3°C 24.1°F-4.4°C 99% Calm Calm -- 30.29 in1025.7 mb - 0.00 in0.0 mm 0.00 in0.0 mm
12:57 AM 24.3°F-4.3°C 24.1°F-4.4°C 99% Calm Calm -- 30.29 in1025.7 mb - 0.00 in0.0 mm 0.00 in0.0 mm
12:56 AM 24.3°F-4.3°C 24.1°F-4.4°C 99% Calm Calm -- 30.29 in1025.7 mb - 0.00 in0.0 mm 0.00 in0.0 mm
12:55 AM 24.3°F-4.3°C 24.1°F-4.4°C 99% Calm Calm -- 30.29 in1025.7 mb - 0.00 in0.0 mm 0.00 in0.0 mm
12:54 AM 24.3°F-4.3°C 24.1°F-4.4°C 99% Calm Calm -- 30.29 in1025.7 mb - 0.00 in0.0 mm 0.00 in0.0 mm
12:53 AM 24.3°F-4.3°C 24.1°F-4.4°C 99% Calm Calm -- 30.29 in1025.7 mb - 0.00 in0.0 mm 0.00 in0.0 mm
12:52 AM 24.2°F-4.3°C 23.9°F-4.5°C 99% Calm Calm -- 30.29 in1025.7 mb - 0.00 in0.0 mm 0.00 in0.0 mm
12:51 AM 24.1°F-4.4°C 23.9°F-4.5°C 99% Calm Calm -- 30.29 in1025.7 mb - 0.00 in0.0 mm 0.00 in0.0 mm
12:50 AM 23.9°F-4.5°C 23.7°F-4.6°C 99% Calm Calm -- 30.29 in1025.7 mb - 0.00 in0.0 mm 0.00 in0.0 mm
12:49 AM 23.9°F-4.5°C 23.7°F-4.6°C 99% Calm Calm -- 30.29 in1025.7 mb - 0.00 in0.0 mm 0.00 in0.0 mm
12:48 AM 23.9°F-4.5°C 23.7°F-4.6°C 99% Calm Calm -- 30.29 in1025.7 mb - 0.00 in0.0 mm 0.00 in0.0 mm
12:47 AM 23.9°F-4.5°C 23.7°F-4.6°C 99% Calm Calm -- 30.29 in1025.7 mb - 0.00 in0.0 mm 0.00 in0.0 mm
12:46 AM 23.9°F-4.5°C 23.7°F-4.6°C 99% Calm Calm -- 30.29 in1025.7 mb - 0.00 in0.0 mm 0.00 in0.0 mm
12:45 AM 23.9°F-4.5°C 23.7°F-4.6°C 99% Calm Calm -- 30.29 in1025.7 mb - 0.00 in0.0 mm 0.00 in0.0 mm
12:44 AM 24.1°F-4.4°C 23.9°F-4.5°C 99% Calm Calm -- 30.29 in1025.7 mb - 0.00 in0.0 mm 0.00 in0.0 mm
12:43 AM 24.3°F-4.3°C 24.1°F-4.4°C 99% Calm Calm -- 30.29 in1025.7 mb - 0.00 in0.0 mm 0.00 in0.0 mm
12:42 AM 24.5°F-4.2°C 24.3°F-4.3°C 99% Calm Calm -- 30.29 in1025.7 mb - 0.00 in0.0 mm 0.00 in0.0 mm
12:41 AM 24.7°F-4.1°C 24.4°F-4.2°C 99% Calm Calm -- 30.29 in1025.7 mb - 0.00 in0.0 mm 0.00 in0.0 mm
12:40 AM 24.9°F-3.9°C 24.7°F-4.1°C 99% Calm Calm -- 30.29 in1025.7 mb - 0.00 in0.0 mm 0.00 in0.0 mm
12:39 AM 25.0°F-3.9°C 24.8°F-4.0°C 99% Calm Calm -- 30.29 in1025.7 mb - 0.00 in0.0 mm 0.00 in0.0 mm
12:38 AM 25.0°F-3.9°C 24.8°F-4.0°C 99% Calm Calm -- 30.29 in1025.7 mb - 0.00 in0.0 mm 0.00 in0.0 mm
12:37 AM 25.0°F-3.9°C 24.8°F-4.0°C 99% Calm Calm -- 30.29 in1025.7 mb - 0.00 in0.0 mm 0.00 in0.0 mm
12:36 AM 25.0°F-3.9°C 24.8°F-4.0°C 99% Calm Calm -- 30.29 in1025.7 mb - 0.00 in0.0 mm 0.00 in0.0 mm
12:35 AM 25.2°F-3.8°C 24.9°F-3.9°C 99% Calm Calm -- 30.29 in1025.7 mb - 0.00 in0.0 mm 0.00 in0.0 mm
12:34 AM 25.2°F-3.8°C 25.0°F-3.9°C 99% Calm Calm -- 30.29 in1025.7 mb - 0.00 in0.0 mm 0.00 in0.0 mm
12:33 AM 25.2°F-3.8°C 25.0°F-3.9°C 99% Calm Calm -- 30.29 in1025.7 mb - 0.00 in0.0 mm 0.00 in0.0 mm
12:32 AM 25.2°F-3.8°C 25.0°F-3.9°C 99% Calm Calm -- 30.29 in1025.7 mb - 0.00 in0.0 mm 0.00 in0.0 mm
12:31 AM 25.2°F-3.8°C 25.0°F-3.9°C 99% Calm Calm -- 30.29 in1025.7 mb - 0.00 in0.0 mm 0.00 in0.0 mm
12:30 AM 25.2°F-3.8°C 25.0°F-3.9°C 99% Calm Calm -- 30.29 in1025.7 mb - 0.00 in0.0 mm 0.00 in0.0 mm
12:29 AM 25.3°F-3.7°C 25.0°F-3.9°C 99% Calm Calm -- 30.29 in1025.7 mb - 0.00 in0.0 mm 0.00 in0.0 mm
12:28 AM 25.3°F-3.7°C 25.1°F-3.8°C 99% Calm Calm -- 30.29 in1025.7 mb - 0.00 in0.0 mm 0.00 in0.0 mm
12:27 AM 25.3°F-3.7°C 25.1°F-3.8°C 99% Calm Calm -- 30.29 in1025.7 mb - 0.00 in0.0 mm 0.00 in0.0 mm
12:26 AM 25.3°F-3.7°C 25.1°F-3.8°C 99% Calm Calm -- 30.30 in1026.1 mb - 0.00 in0.0 mm 0.00 in0.0 mm
12:25 AM 25.3°F-3.7°C 25.1°F-3.8°C 99% Calm Calm -- 30.30 in1026.1 mb - 0.00 in0.0 mm 0.00 in0.0 mm
12:24 AM 25.3°F-3.7°C 25.1°F-3.8°C 99% Calm Calm -- 30.30 in1026.1 mb - 0.00 in0.0 mm 0.00 in0.0 mm
12:23 AM 25.3°F-3.7°C 25.1°F-3.8°C 99% Calm Calm -- 30.30 in1026.1 mb - 0.00 in0.0 mm 0.00 in0.0 mm
12:22 AM 25.4°F-3.7°C 25.1°F-3.8°C 99% Calm Calm -- 30.30 in1026.1 mb - 0.00 in0.0 mm 0.00 in0.0 mm
12:21 AM 25.5°F-3.6°C 25.3°F-3.7°C 99% Calm Calm -- 30.30 in1026.1 mb - 0.00 in0.0 mm 0.00 in0.0 mm
12:20 AM 25.5°F-3.6°C 25.3°F-3.7°C 99% Calm Calm -- 30.30 in1026.1 mb - 0.00 in0.0 mm 0.00 in0.0 mm
12:19 AM 25.5°F-3.6°C 25.3°F-3.7°C 99% Calm Calm -- 30.30 in1026.1 mb - 0.00 in0.0 mm 0.00 in0.0 mm
12:18 AM 25.5°F-3.6°C 25.3°F-3.7°C 99% Calm Calm -- 30.30 in1026.1 mb - 0.00 in0.0 mm 0.00 in0.0 mm
12:17 AM 25.5°F-3.6°C 25.3°F-3.7°C 99% Calm Calm -- 30.30 in1026.1 mb - 0.00 in0.0 mm 0.00 in0.0 mm
12:16 AM 25.7°F-3.5°C 25.5°F-3.6°C 99% Calm Calm -- 30.30 in1026.1 mb - 0.00 in0.0 mm 0.00 in0.0 mm
12:15 AM 25.7°F-3.5°C 25.5°F-3.6°C 99% Calm Calm -- 30.30 in1026.1 mb - 0.00 in0.0 mm 0.00 in0.0 mm
12:14 AM 25.7°F-3.5°C 25.5°F-3.6°C 99% Calm Calm -- 30.30 in1026.1 mb - 0.00 in0.0 mm 0.00 in0.0 mm
12:13 AM 25.7°F-3.5°C 25.5°F-3.6°C 99% Calm Calm -- 30.30 in1026.1 mb - 0.00 in0.0 mm 0.00 in0.0 mm
12:12 AM 25.7°F-3.5°C 25.5°F-3.6°C 99% Calm Calm -- 30.30 in1026.1 mb - 0.00 in0.0 mm 0.00 in0.0 mm
12:11 AM 25.7°F-3.5°C 25.5°F-3.6°C 99% Calm Calm -- 30.30 in1026.1 mb - 0.00 in0.0 mm 0.00 in0.0 mm
12:10 AM 25.7°F-3.5°C 25.5°F-3.6°C 99% Calm Calm -- 30.30 in1026.1 mb - 0.00 in0.0 mm 0.00 in0.0 mm
12:09 AM 25.7°F-3.5°C 25.5°F-3.6°C 99% Calm Calm -- 30.30 in1026.1 mb - 0.00 in0.0 mm 0.00 in0.0 mm
12:08 AM 25.5°F-3.6°C 25.3°F-3.7°C 99% Calm Calm -- 30.30 in1026.1 mb - 0.00 in0.0 mm 0.00 in0.0 mm
12:07 AM 25.5°F-3.6°C 25.3°F-3.7°C 99% Calm Calm -- 30.30 in1026.1 mb - 0.00 in0.0 mm 0.00 in0.0 mm
12:06 AM 25.5°F-3.6°C 25.3°F-3.7°C 99% Calm Calm -- 30.30 in1026.1 mb - 0.00 in0.0 mm 0.00 in0.0 mm
12:05 AM 25.5°F-3.6°C 25.3°F-3.7°C 99% Calm Calm -- 30.30 in1026.1 mb - 0.00 in0.0 mm 0.00 in0.0 mm
12:04 AM 25.5°F-3.6°C 25.3°F-3.7°C 99% Calm Calm -- 30.30 in1026.1 mb - 0.00 in0.0 mm 0.00 in0.0 mm
12:03 AM 25.5°F-3.6°C 25.3°F-3.7°C 99% Calm Calm -- 30.30 in1026.1 mb - 0.00 in0.0 mm 0.00 in0.0 mm
12:02 AM 25.5°F-3.6°C 25.3°F-3.7°C 99% Calm Calm -- 30.30 in1026.1 mb - 0.00 in0.0 mm 0.00 in0.0 mm
12:01 AM 25.4°F-3.7°C 25.2°F-3.8°C 99% Calm Calm -- 30.30 in1026.1 mb - 0.00 in0.0 mm 0.00 in0.0 mm
12:00 AM 25.3°F-3.7°C 25.1°F-3.8°C 99% Calm Calm -- 30.30 in1026.1 mb - 0.00 in0.0 mm 0.00 in0.0 mm